West Pawlet, VT (05775)

11:06 AM EST on December 05, 2016 (GMT -0500)
Rush Hollow | | Change Station

Elev 730 ft 43.34 °N, 73.23 °W | Updated 6 minutes ago

Light Snow
Light Snow
31.8 °F
Feels Like 32 °F
N
0.0
Wind Variable Wind from SSW
Gusts 4.0 mph

Today
High -- | Low -- °F
--% Chance of Precip.
Yesterday
High -- | Low -- °F
Precip. -- in
Pressure 29.92 in
Visibility 2.5 miles
Clouds Mostly Cloudy 800 ft
Overcast 1400 ft
Windchill 32 °F
Dew Point 30 °F
Humidity 94%
Rainfall 0.00 in
Snow Depth Not available.
7:10 AM 4:17 PM
Waxing Crescent, 32% visible
SPECI KGFL 051520Z AUTO 00000KT 2 1/2SM -SN BKN008 OVC014 M01/M04 A2992 RMK AO2 CIG 007V013 P0000 T10111039
Pressure 29.92 in
Visibility 2.5 miles
Clouds Mostly Cloudy 800 ft
Overcast 1400 ft
Windchill 32 °F
Dew Point 30 °F
Humidity 94%
Rainfall 0.00 in
Snow Depth Not available.
7:10 AM 4:17 PM
Waxing Crescent, 32% visible
SPECI KGFL 051520Z AUTO 00000KT 2 1/2SM -SN BKN008 OVC014 M01/M04 A2992 RMK AO2 CIG 007V013 P0000 T10111039

10-Day Weather Forecast

Almanac

Astronomy

Dec. 05, 2016 Rise Set
Actual Time
Civil Twilight
Nautical Twilight
Astronomical Twilight
Moon
Length of Visible Light
Length of Day
Tomorrow will be .
, % of the Moon is Illuminated

Today's Extremes

State Highs State Lows

Community

WunderPhotos

Upload Photos

1,955,800 photos uploaded!

WunderBlog® & News

Nearby

Air Quality

  Air Quality AQ Index Pollutant
Not available.

Snow Depth

Station Depth Elevation

Earthquake Activity

City Distance Mag. Time & Date
Minimum magnitude displayed is 2.5.

Coastal Water Temperatures

Place Temperature

Stations

Nearby Weather Stations

Station Location Temp. Windchill Dew Point Humidity Wind Precip. Elev Updated Type
                   

Watches & Warnings

There are currently no watches in effect.